Time;durP1;ratioP1;P1;durP2;ratioP2;P2;SDS_P1;SDS_P2;PMS_P1;PMS_P2;Temp;Humidity;BMP_temperature;BMP_pressure;BME280_temperature;BME280_humidity;BME280_pressure;Samples;Min_cycle;Max_cycle;Signal;HPM_P1;HPM_P2
2022/01/28 00:00:09;;;;;;;4.60;2.38;;;;;;;-6.92;60.79;99188.66;4992936;28;20042;-78
2022/01/28 00:05:16;;;;;;;4.57;2.28;;;;;;;-6.74;60.88;99203.91;4993513;28;20073;-76
2022/01/28 00:07:41;;;;;;;;;;;;;;;-6.71;61.09;99209.97;5011178;28;20132;-76
2022/01/28 00:10:07;;;;;;;3.83;2.00;;;;;;;-6.79;60.56;99197.72;5010491;28;20007;-76
2022/01/28 00:12:35;;;;;;;7.65;3.00;;;;;;;-6.77;60.90;99194.50;4993115;28;20041;-77
2022/01/28 00:15:07;;;;;;;6.93;2.70;;;;;;;-6.84;60.67;99177.25;4976788;28;20037;-78
2022/01/28 00:38:53;;;;;;;6.57;2.60;;;;;;;-6.56;60.49;99173.59;4992711;28;20034;-77
2022/01/28 00:41:20;;;;;;;4.93;2.90;;;;;;;-6.51;61.00;99172.16;4992867;28;20030;-80
2022/01/28 00:43:45;;;;;;;6.07;2.40;;;;;;;-6.66;60.84;99142.75;4992293;28;20166;-79
2022/01/28 00:46:11;;;;;;;6.18;3.38;;;;;;;-6.48;60.84;99164.69;4992778;28;20172;-80
2022/01/28 00:48:37;;;;;;;4.55;2.28;;;;;;;-6.55;60.55;99166.06;4993350;28;20518;-76
2022/01/28 00:51:03;;;;;;;5.47;3.13;;;;;;;-6.79;60.89;99121.81;4977058;28;20045;-78
2022/01/28 00:53:28;;;;;;;9.68;3.40;;;;;;;-6.60;60.32;99172.53;5010136;28;20038;-77
2022/01/28 00:55:54;;;;;;;7.93;3.47;;;;;;;-6.89;60.47;99143.25;4993276;28;20398;-79
2022/01/28 00:58:21;;;;;;;5.75;3.50;;;;;;;-6.90;61.22;99132.28;5010907;28;20038;-79
2022/01/28 01:00:47;;;;;;;7.25;3.10;;;;;;;-6.86;61.04;99148.47;4993358;28;20037;-77
2022/01/28 01:03:13;;;;;;;8.27;3.10;;;;;;;-6.85;61.41;99156.16;5011073;28;20045;-76
2022/01/28 01:05:39;;;;;;;6.80;3.45;;;;;;;-6.82;61.59;99145.31;4995977;28;20038;-78
2022/01/28 01:08:06;;;;;;;6.57;3.20;;;;;;;-6.85;61.27;99140.09;4998355;28;20061;-79
2022/01/28 01:10:33;;;;;;;6.53;3.22;;;;;;;-6.77;61.26;99130.34;4983950;28;20038;-77
2022/01/28 01:13:00;;;;;;;6.95;2.90;;;;;;;-6.79;61.09;99135.34;4982583;28;20065;-80
2022/01/28 01:15:31;;;;;;;10.13;3.97;;;;;;;-6.74;61.63;99144.06;5013765;28;20140;-75
2022/01/28 01:18:24;;;;;;;5.88;2.90;;;;;;;-6.71;61.24;99138.25;5013603;28;20412;-78
2022/01/28 01:20:59;;;;;;;6.55;3.13;;;;;;;-6.67;61.10;99141.00;5013625;28;20034;-76
2022/01/28 01:23:31;;;;;;;7.78;3.63;;;;;;;-6.76;61.28;99134.63;4996037;28;20045;-79
2022/01/28 01:28:33;;;;;;;7.18;3.13;;;;;;;-6.88;61.49;99132.34;4995656;28;20054;-76
2022/01/28 01:31:03;;;;;;;7.47;3.05;;;;;;;-6.88;61.71;99129.81;4979488;28;20129;-80
2022/01/28 01:33:32;;;;;;;8.07;3.20;;;;;;;-6.95;61.62;99123.59;4996031;28;20708;-76
2022/01/28 01:35:59;;;;;;;8.18;3.35;;;;;;;-6.93;61.78;99113.53;4995863;28;20053;-78
2022/01/28 01:38:27;;;;;;;5.50;2.63;;;;;;;-6.92;61.29;99116.16;4995869;28;20420;-76
2022/01/28 01:40:59;;;;;;;5.88;2.97;;;;;;;-7.05;61.68;99091.91;4995962;28;20052;-78
2022/01/28 01:53:58;;;;;;;4.47;2.53;;;;;;;-7.12;61.95;99087.31;4966152;28;20049;-77
2022/01/28 01:56:24;;;;;;;6.03;2.72;;;;;;;-7.33;62.34;99047.53;5016735;28;20041;-77
2022/01/28 01:58:57;;;;;;;7.28;2.63;;;;;;;-7.01;62.01;99103.91;5003042;28;20049;-82
2022/01/28 02:01:23;;;;;;;5.32;2.78;;;;;;;-7.05;62.19;99107.09;5021106;28;20040;-79
2022/01/28 02:03:51;;;;;;;6.40;3.10;;;;;;;-7.16;62.37;99098.06;5020070;28;20121;-78
2022/01/28 02:06:19;;;;;;;11.10;4.13;;;;;;;-7.07;62.91;99085.03;4997561;28;20046;-76
2022/01/28 02:08:46;;;;;;;6.25;3.17;;;;;;;-6.92;62.44;99103.50;5012902;28;20090;-77
2022/01/28 02:11:11;;;;;;;3.65;1.63;;;;;;;-6.95;61.87;99131.19;4995606;28;20057;-79
2022/01/28 02:13:39;;;;;;;7.75;3.20;;;;;;;-7.13;62.28;99089.00;4995497;28;20397;-77
2022/01/28 02:16:06;;;;;;;11.93;3.78;;;;;;;-7.36;62.43;99054.94;4980293;28;20049;-78
2022/01/28 02:18:32;;;;;;;7.18;3.28;;;;;;;-7.06;62.91;99107.03;4995474;28;20136;-77
2022/01/28 02:21:06;;;;;;;5.47;2.63;;;;;;;-7.16;62.70;99078.72;4994843;28;20030;-77
2022/01/28 02:23:32;;;;;;;10.35;3.58;;;;;;;-7.21;62.46;99075.09;5012529;28;20521;-78
2022/01/28 02:26:00;;;;;;;11.65;5.00;;;;;;;-7.04;63.24;99088.59;4994733;28;20034;-77
2022/01/28 02:28:28;;;;;;;10.05;4.65;;;;;;;-6.90;63.09;99090.91;5012999;28;20154;-76
2022/01/28 02:30:54;;;;;;;5.60;3.30;;;;;;;-6.95;63.10;99078.06;4982649;28;20132;-78
2022/01/28 02:33:23;;;;;;;6.18;3.13;;;;;;;-6.86;62.97;99083.56;4998350;28;20088;-77
2022/01/28 02:35:50;;;;;;;10.27;3.72;;;;;;;-6.77;63.04;99097.47;4999538;28;20104;-76
2022/01/28 02:38:18;;;;;;;8.13;3.92;;;;;;;-6.76;62.58;99092.50;4994682;28;20374;-75
2022/01/28 02:40:50;;;;;;;6.78;3.10;;;;;;;-6.83;63.34;99095.50;5012362;28;20421;-76
2022/01/28 02:46:14;;;;;;;5.32;2.83;;;;;;;-6.86;62.85;99082.69;4974604;28;20158;-76
2022/01/28 02:48:51;;;;;;;8.32;3.55;;;;;;;-6.97;62.82;99057.75;4995028;28;20560;-77
2022/01/28 02:51:19;;;;;;;9.02;2.60;;;;;;;-6.82;63.02;99087.97;4995794;28;20053;-76
2022/01/28 02:53:53;;;;;;;6.63;3.30;;;;;;;-6.80;62.75;99072.88;5003256;28;20125;-80
2022/01/28 02:56:40;;;;;;;9.13;3.45;;;;;;;-6.77;62.54;99062.03;4998404;28;20489;-76
2022/01/28 02:59:07;;;;;;;7.57;3.25;;;;;;;-6.71;62.28;99062.34;4995397;28;20121;-78
2022/01/28 03:01:33;;;;;;;7.47;3.55;;;;;;;-6.76;62.33;99052.00;4995404;28;20046;-76
2022/01/28 03:04:02;;;;;;;6.97;3.63;;;;;;;-6.86;62.88;99024.50;4981596;28;20144;-79
2022/01/28 03:06:27;;;;;;;6.30;3.03;;;;;;;-6.72;62.82;99050.47;4967095;28;20049;-78
2022/01/28 03:16:24;;;;;;;12.27;5.30;;;;;;;-6.66;62.96;99043.19;5017589;28;20084;-77
2022/01/28 03:21:36;;;;;;;13.32;4.70;;;;;;;-6.59;63.48;99029.16;4998682;28;20541;-77
2022/01/28 03:24:04;;;;;;;12.52;4.38;;;;;;;-6.60;63.15;99010.53;4981967;28;20046;-77
2022/01/28 03:26:30;;;;;;;7.55;3.53;;;;;;;-6.52;62.98;99048.91;4993216;28;20054;-76
2022/01/28 03:28:56;;;;;;;10.55;4.82;;;;;;;-6.51;63.67;99050.63;5010723;28;20053;-76
2022/01/28 03:31:22;;;;;;;7.47;3.00;;;;;;;-6.44;62.66;99032.38;5010914;28;20517;-77
2022/01/28 03:33:47;;;;;;;9.27;4.28;;;;;;;-6.37;63.43;99019.22;4993070;28;20037;-76
2022/01/28 03:36:14;;;;;;;10.02;4.43;;;;;;;-6.24;63.47;99027.38;5011541;28;20049;-78
2022/01/28 03:38:41;;;;;;;9.55;4.63;;;;;;;-6.20;62.91;99016.59;4993408;28;20057;-77
2022/01/28 03:41:13;;;;;;;9.35;4.10;;;;;;;-6.29;62.79;99001.84;4977184;28;20034;-79
2022/01/28 03:43:39;;;;;;;9.95;4.43;;;;;;;-6.35;62.74;99001.56;4993395;28;20049;-78
2022/01/28 03:46:06;;;;;;;10.70;3.95;;;;;;;-6.24;63.28;99013.06;4993647;28;20038;-78
2022/01/28 03:48:32;;;;;;;9.15;4.70;;;;;;;-6.23;63.29;99002.13;5010950;28;20037;-79
2022/01/28 03:50:57;;;;;;;9.75;4.22;;;;;;;-6.30;62.72;98992.50;4977233;28;20041;-80
2022/01/28 03:53:23;;;;;;;8.73;3.78;;;;;;;-6.29;62.79;98994.25;4992992;28;20037;-77
2022/01/28 03:55:52;;;;;;;7.72;3.55;;;;;;;-6.23;62.91;98993.66;4993268;28;20046;-78
2022/01/28 03:58:18;;;;;;;11.18;3.97;;;;;;;-6.16;63.00;98993.13;4977375;28;20037;-80
2022/01/28 04:00:44;;;;;;;7.15;4.32;;;;;;;-6.12;63.65;98986.53;4977633;28;20046;-76
2022/01/28 04:03:38;;;;;;;7.05;3.10;;;;;;;-6.01;62.93;99008.16;5011238;28;20034;-77
2022/01/28 04:13:51;;;;;;;8.05;3.92;;;;;;;-6.01;63.41;98971.81;5011749;28;20081;-78
2022/01/28 04:18:47;;;;;;;11.27;4.90;;;;;;;-5.85;63.19;98994.47;5011331;28;20042;-76
2022/01/28 04:21:13;;;;;;;11.35;4.75;;;;;;;-5.80;63.54;98990.44;5010864;28;20034;-77
2022/01/28 04:23:39;;;;;;;7.72;3.60;;;;;;;-5.84;63.31;98988.56;5010838;28;20046;-78
2022/01/28 04:26:05;;;;;;;9.15;4.18;;;;;;;-5.75;63.48;98991.53;4995130;28;20122;-76
2022/01/28 04:28:30;;;;;;;8.85;3.95;;;;;;;-5.88;62.60;98961.38;5010693;28;20056;-76
2022/01/28 04:30:57;;;;;;;8.68;3.83;;;;;;;-5.95;63.31;98974.59;5010558;28;20513;-75
2022/01/28 04:33:23;;;;;;;8.20;3.80;;;;;;;-5.88;62.89;99003.59;4976780;28;20428;-76
2022/01/28 04:35:52;;;;;;;8.18;3.97;;;;;;;-5.96;63.14;98994.00;5010164;28;20107;-77
2022/01/28 04:38:38;;;;;;;7.38;4.00;;;;;;;-5.93;63.66;98983.97;4992907;28;20060;-78
2022/01/28 04:41:19;;;;;;;7.72;3.60;;;;;;;-5.75;63.40;99000.81;5010351;28;20460;-77
2022/01/28 04:43:51;;;;;;;8.02;3.97;;;;;;;-5.90;63.09;98961.31;5010795;28;20100;-77
2022/01/28 04:46:37;;;;;;;8.05;4.22;;;;;;;-5.79;63.36;98964.31;4964906;28;20045;-76
2022/01/28 04:49:13;;;;;;;7.53;3.70;;;;;;;-5.61;62.82;98976.03;4996957;28;20071;-75
2022/01/28 04:52:12;;;;;;;6.38;3.35;;;;;;;-5.55;63.15;98983.03;4996333;28;20477;-76
2022/01/28 05:00:27;;;;;;;9.63;3.80;;;;;;;-6.00;63.12;98959.22;4998914;28;20048;-78
2022/01/28 05:05:33;;;;;;;8.45;3.92;;;;;;;-5.79;63.27;98974.44;4998458;28;20049;-75
2022/01/28 05:26:52;;;;;;;7.95;3.60;;;;;;;-5.72;62.96;98967.13;4998245;28;20652;-77
2022/01/28 05:29:18;;;;;;;7.78;3.75;;;;;;;-5.81;62.57;98973.50;4995463;28;20062;-77
2022/01/28 05:31:43;;;;;;;8.50;4.18;;;;;;;-5.70;63.54;98975.66;4993789;28;20123;-78
2022/01/28 05:34:09;;;;;;;8.20;3.75;;;;;;;-5.75;62.66;98956.03;4995712;28;20465;-76
2022/01/28 05:36:35;;;;;;;8.55;4.05;;;;;;;-5.71;63.33;98971.38;4994439;28;20038;-77
2022/01/28 05:39:02;;;;;;;7.18;3.85;;;;;;;-5.65;63.70;98967.44;4995433;28;20042;-75
2022/01/28 05:41:27;;;;;;;9.35;4.85;;;;;;;-5.63;63.39;98962.44;5001521;28;20042;-78
2022/01/28 05:43:53;;;;;;;10.52;4.22;;;;;;;-5.55;63.55;98960.22;4984327;28;20050;-76
2022/01/28 05:46:19;;;;;;;12.20;5.28;;;;;;;-5.83;63.18;98909.22;5001713;28;20106;-78
2022/01/28 05:48:45;;;;;;;7.53;3.67;;;;;;;-5.39;63.21;98970.19;4997258;28;20097;-77
2022/01/28 05:51:12;;;;;;;8.95;4.60;;;;;;;-5.34;63.08;98957.69;4980369;28;20646;-77
2022/01/28 05:53:38;;;;;;;5.57;3.30;;;;;;;-5.41;62.28;98958.28;4965475;28;20068;-77
2022/01/28 05:56:04;;;;;;;7.25;3.90;;;;;;;-5.51;62.82;98949.38;4996159;28;20065;-77
2022/01/28 05:58:30;;;;;;;8.52;3.88;;;;;;;-5.56;62.77;98954.28;4980380;28;20045;-77
2022/01/28 06:00:55;;;;;;;8.30;4.30;;;;;;;-5.57;63.42;98947.47;4996799;28;20046;-79
2022/01/28 06:03:21;;;;;;;10.75;5.03;;;;;;;-5.43;63.63;98937.06;4992673;28;20034;-76
2022/01/28 06:05:48;;;;;;;11.13;4.85;;;;;;;-5.39;63.00;98941.41;4977818;28;20038;-78
2022/01/28 06:08:14;;;;;;;6.03;3.33;;;;;;;-5.51;63.21;98919.84;4977250;28;20045;-77
2022/01/28 06:10:40;;;;;;;7.97;4.30;;;;;;;-5.37;63.06;98949.97;4994043;28;20156;-76
2022/01/28 06:13:12;;;;;;;8.40;4.43;;;;;;;-5.43;62.82;98934.50;4996341;28;20158;-79
2022/01/28 06:15:42;;;;;;;11.07;5.13;;;;;;;-5.59;62.94;98918.66;4976510;28;20046;-76
2022/01/28 06:18:12;;;;;;;10.77;5.32;;;;;;;-5.88;62.87;98867.63;4976474;28;20080;-78
2022/01/28 06:20:40;;;;;;;8.27;4.50;;;;;;;-5.60;62.15;98916.91;4993255;28;20133;-77
2022/01/28 06:23:06;;;;;;;10.70;5.28;;;;;;;-5.46;62.80;98965.66;4993208;28;20074;-74
2022/01/28 06:25:32;;;;;;;11.82;5.13;;;;;;;-5.52;63.30;98935.00;4993692;28;20046;-78
2022/01/28 06:27:58;;;;;;;11.30;5.70;;;;;;;-5.43;63.43;98925.22;4977615;28;20060;-76
2022/01/28 06:30:25;;;;;;;10.82;4.95;;;;;;;-5.37;62.63;98940.69;4993400;28;20382;-77
2022/01/28 06:32:52;;;;;;;11.45;4.93;;;;;;;-5.45;62.94;98936.97;4977397;28;20038;-79
2022/01/28 06:35:17;;;;;;;10.95;5.55;;;;;;;-5.51;62.60;98914.78;4993977;28;20072;-80
2022/01/28 06:37:45;;;;;;;11.55;5.50;;;;;;;-5.49;62.80;98919.88;4992173;28;20042;-78
2022/01/28 06:40:16;;;;;;;11.90;5.60;;;;;;;-5.40;63.32;98919.41;4991924;28;20112;-77
2022/01/28 06:42:43;;;;;;;9.80;4.72;;;;;;;-5.21;62.89;98936.25;4993807;28;20038;-75
2022/01/28 06:45:09;;;;;;;8.05;4.47;;;;;;;-5.23;62.65;98932.78;4994609;28;20565;-77
2022/01/28 06:47:35;;;;;;;12.73;6.05;;;;;;;-5.31;63.02;98924.84;4992914;28;20042;-81
2022/01/28 06:50:05;;;;;;;14.13;5.45;;;;;;;-5.29;63.34;98905.50;4975803;28;20414;-77
2022/01/28 06:52:32;;;;;;;7.85;4.18;;;;;;;-5.38;62.24;98907.66;4975933;28;20100;-82
2022/01/28 06:55:00;;;;;;;8.88;4.70;;;;;;;-5.38;62.69;98912.72;4992558;28;20493;-78
2022/01/28 06:57:29;;;;;;;12.05;5.65;;;;;;;-5.50;63.31;98890.25;4992281;28;20049;-79
2022/01/28 06:59:56;;;;;;;10.90;5.13;;;;;;;-5.29;62.94;98928.31;4992331;28;20098;-76
2022/01/28 07:02:21;;;;;;;12.10;5.40;;;;;;;-5.54;63.05;98894.34;4958746;28;20069;-76
2022/01/28 07:04:47;;;;;;;14.32;4.78;;;;;;;-5.47;63.05;98914.09;4992675;28;20521;-77
2022/01/28 07:07:14;;;;;;;10.85;4.65;;;;;;;-5.47;63.11;98916.63;4991269;28;20138;-77
2022/01/28 07:09:40;;;;;;;11.32;4.85;;;;;;;-5.34;64.02;98924.72;4992247;28;20076;-78
2022/01/28 07:12:06;;;;;;;14.02;6.50;;;;;;;-5.45;63.69;98909.97;4995393;28;20109;-82
2022/01/28 07:14:32;;;;;;;15.65;6.53;;;;;;;-5.39;63.17;98895.78;4994798;28;20034;-75
2022/01/28 07:16:58;;;;;;;11.80;4.78;;;;;;;-5.13;63.44;98917.13;5006215;28;20038;-80
2022/01/28 07:19:24;;;;;;;13.10;6.32;;;;;;;-4.92;63.13;98909.47;4985390;28;20034;-76
2022/01/28 07:21:51;;;;;;;10.90;5.38;;;;;;;-4.79;62.95;98902.34;4997354;28;20081;-75
2022/01/28 07:24:17;;;;;;;15.40;5.90;;;;;;;-4.70;63.23;98887.44;4995476;28;20038;-77
2022/01/28 07:26:43;;;;;;;18.75;7.38;;;;;;;-4.59;63.14;98873.50;4994421;28;20494;-80
2022/01/28 07:29:11;;;;;;;19.80;7.40;;;;;;;-4.24;62.43;98926.41;4995719;28;20521;-76
2022/01/28 07:32:00;;;;;;;13.70;6.80;;;;;;;-4.49;62.68;98910.25;4993976;28;20069;-78
2022/01/28 07:34:27;;;;;;;11.25;5.30;;;;;;;-4.70;62.71;98892.53;4977580;28;20049;-84
2022/01/28 07:36:53;;;;;;;14.95;7.05;;;;;;;-4.42;63.56;98914.75;4993712;28;20093;-78
2022/01/28 07:39:30;;;;;;;13.15;5.90;;;;;;;-4.54;63.20;98907.53;4995863;28;20054;-78
2022/01/28 07:41:57;;;;;;;13.70;6.25;;;;;;;-4.18;63.89;98928.28;4994962;28;20061;-77
2022/01/28 07:44:23;;;;;;;13.13;7.03;;;;;;;-4.56;62.62;98868.53;4976916;28;20057;-80
2022/01/28 07:46:48;;;;;;;12.20;5.85;;;;;;;-4.54;62.63;98925.31;4992811;28;20041;-78
2022/01/28 07:49:15;;;;;;;10.60;5.32;;;;;;;-4.89;62.63;98879.13;4975679;28;20045;-78
2022/01/28 07:51:44;;;;;;;13.68;6.07;;;;;;;-4.69;63.14;98924.72;4993870;28;20043;-82
2022/01/28 07:54:10;;;;;;;12.90;6.10;;;;;;;-4.64;63.23;98925.78;4994491;28;20042;-77
2022/01/28 07:56:36;;;;;;;14.25;5.70;;;;;;;-4.55;62.29;98943.03;4995296;28;20061;-80
2022/01/28 07:59:02;;;;;;;14.75;6.68;;;;;;;-4.92;63.14;98827.41;5001101;28;20493;-76
2022/01/28 08:01:49;;;;;;;15.05;6.38;;;;;;;-4.16;62.64;98937.69;4987600;28;20092;-77
2022/01/28 08:04:20;;;;;;;12.82;6.22;;;;;;;-4.30;62.94;98937.19;4996785;28;20113;-80
2022/01/28 08:06:49;;;;;;;12.77;6.22;;;;;;;-4.43;62.68;98938.44;4986857;28;20046;-79
2022/01/28 08:09:15;;;;;;;12.40;5.45;;;;;;;-5.20;62.92;98819.63;5020432;28;20501;-76
2022/01/28 08:11:41;;;;;;;14.73;6.93;;;;;;;-4.45;62.26;98934.06;5004724;28;20073;-80
2022/01/28 08:14:07;;;;;;;14.20;6.68;;;;;;;-4.47;62.66;98926.41;5005993;28;20049;-81
2022/01/28 08:16:35;;;;;;;16.40;6.43;;;;;;;-4.63;62.58;98893.66;4990728;28;20042;-79
2022/01/28 08:19:01;;;;;;;17.08;6.85;;;;;;;-4.39;62.51;98919.91;5012166;28;20018;-77
2022/01/28 08:21:27;;;;;;;15.50;6.60;;;;;;;-4.58;62.26;98912.44;4983875;28;20464;-79
2022/01/28 08:23:53;;;;;;;19.85;8.15;;;;;;;-4.56;62.42;98898.13;5016334;28;20045;-83
2022/01/28 08:26:19;;;;;;;14.80;7.07;;;;;;;-4.52;62.11;98884.72;5014401;28;20098;-80
2022/01/28 08:28:49;;;;;;;15.43;7.35;;;;;;;-4.49;63.05;98886.50;5005213;28;20081;-78
2022/01/28 08:31:36;;;;;;;;;;;;;;;;;;;;;
2022/01/28 08:34:27;;;;;;;16.35;7.00;;;;;;;-5.38;62.93;98751.28;4992977;28;20047;-82
2022/01/28 08:36:56;;;;;;;16.13;7.43;;;;;;;-4.81;62.97;98769.41;4987886;28;20054;-79
2022/01/28 08:39:24;;;;;;;18.90;7.32;;;;;;;-3.71;63.12;98916.38;5000374;28;20038;-79
2022/01/28 08:41:52;;;;;;;19.98;9.00;;;;;;;-4.30;61.76;98820.31;4996724;28;20038;-81
2022/01/28 08:44:26;;;;;;;17.02;6.38;;;;;;;-3.99;61.92;98798.50;4982495;28;20043;-77
2022/01/28 08:46:59;;;;;;;22.33;8.90;;;;;;;-3.82;62.54;98811.78;4981688;28;20220;-79
2022/01/28 08:49:25;;;;;;;22.25;9.35;;;;;;;-3.36;62.69;98878.50;4998432;28;20046;-82
2022/01/28 08:51:51;;;;;;;23.48;9.32;;;;;;;-3.37;61.29;98917.50;4997750;28;20509;-80
2022/01/28 08:54:19;;;;;;;25.67;9.38;;;;;;;-3.81;61.65;98859.25;4997134;28;20053;-80
2022/01/28 08:56:48;;;;;;;22.38;9.88;;;;;;;-3.61;62.18;98906.50;4964650;28;20046;-80
2022/01/28 08:59:14;;;;;;;22.23;9.25;;;;;;;-4.27;61.80;98800.09;4998025;28;20038;-78
2022/01/28 09:01:39;;;;;;;24.45;10.80;;;;;;;-3.48;62.85;98893.41;4997616;28;20040;-78
2022/01/28 09:04:05;;;;;;;19.30;8.70;;;;;;;-3.72;62.04;98857.81;4963464;28;20053;-79
2022/01/28 09:06:31;;;;;;;19.23;8.65;;;;;;;-3.57;62.28;98852.38;4996370;28;20073;-78
2022/01/28 09:09:00;;;;;;;17.63;7.65;;;;;;;-3.48;62.13;98878.13;4965688;28;20106;-79
2022/01/28 09:13:52;;;;;;;19.35;8.65;;;;;;;-3.09;62.20;98884.47;4983563;28;20046;-78
2022/01/28 09:16:21;;;;;;;21.58;9.20;;;;;;;-3.23;61.62;98853.47;4983475;28;20122;-76
2022/01/28 09:18:49;;;;;;;20.48;9.55;;;;;;;-3.41;61.92;98824.06;4968085;28;20069;-80
2022/01/28 09:21:19;;;;;;;21.48;8.73;;;;;;;-3.11;61.50;98874.22;4983542;28;20038;-79
2022/01/28 09:23:46;;;;;;;17.42;7.07;;;;;;;-2.99;61.06;98870.31;5015218;28;20062;-77
2022/01/28 09:26:14;;;;;;;25.08;9.02;;;;;;;-3.22;60.97;98893.38;5007955;28;20061;-81
2022/01/28 09:28:40;;;;;;;18.88;8.55;;;;;;;-3.53;61.21;98859.31;5028180;28;20101;-79
2022/01/28 09:31:08;;;;;;;27.17;9.90;;;;;;;-4.06;61.83;98801.63;4995073;28;20092;-79
2022/01/28 09:33:41;;;;;;;21.58;9.15;;;;;;;-4.11;62.33;98772.69;4970117;28;20113;-82
2022/01/28 09:36:14;;;;;;;20.08;8.45;;;;;;;-3.90;61.69;98792.00;4972359;28;20119;-80
2022/01/28 09:38:41;;;;;;;23.42;9.48;;;;;;;-3.85;61.96;98814.22;5008642;28;20072;-76
2022/01/28 09:41:09;;;;;;;19.45;8.65;;;;;;;-3.67;61.34;98885.16;4995020;28;20045;-76
2022/01/28 09:43:38;;;;;;;20.77;9.93;;;;;;;-3.55;61.76;98878.75;5005840;28;20064;-78
2022/01/28 09:46:07;;;;;;;25.38;10.32;;;;;;;-3.50;61.90;98867.03;4975387;28;20061;-78
2022/01/28 09:48:35;;;;;;;27.23;10.52;;;;;;;-3.40;62.12;98876.69;4991375;28;20086;-78
2022/01/28 09:51:12;;;;;;;25.30;10.65;;;;;;;-4.63;62.18;98658.34;4982088;28;20081;-81
2022/01/28 09:53:47;;;;;;;25.67;10.15;;;;;;;-3.78;61.40;98826.31;4995680;28;20106;-77
2022/01/28 09:56:16;;;;;;;22.52;10.60;;;;;;;-3.67;61.79;98861.41;4992869;28;20046;-80
2022/01/28 09:58:45;;;;;;;22.20;9.68;;;;;;;-3.70;61.18;98862.16;4974829;28;20046;-78
2022/01/28 10:01:14;;;;;;;26.38;10.57;;;;;;;-3.66;62.35;98874.19;4991253;28;20548;-79
2022/01/28 10:04:00;;;;;;;25.02;9.48;;;;;;;-3.77;61.86;98844.97;4994152;28;20042;-76
2022/01/28 10:06:35;;;;;;;30.73;11.48;;;;;;;-3.66;62.07;98852.94;4991889;28;20097;-79
2022/01/28 10:09:11;;;;;;;30.63;11.60;;;;;;;-3.52;62.54;98827.97;4988046;28;20473;-78
2022/01/28 10:11:43;;;;;;;26.73;10.90;;;;;;;-4.13;61.54;98734.50;4983971;28;20057;-79
2022/01/28 10:14:15;;;;;;;23.83;10.25;;;;;;;-3.88;61.80;98775.97;4981901;28;20446;-77
2022/01/28 10:16:53;;;;;;;;;;;;;;;-3.48;61.33;98856.09;5006586;28;20042;-78
2022/01/28 10:19:19;;;;;;;20.77;9.90;;;;;;;-3.81;61.89;98813.50;4979464;28;19997;-78
2022/01/28 10:21:46;;;;;;;27.42;10.60;;;;;;;-3.43;62.75;98837.56;4974314;28;20073;-77
2022/01/28 10:24:17;;;;;;;28.77;9.45;;;;;;;-3.37;62.09;98828.44;5002247;28;20050;-77
2022/01/28 10:26:56;;;;;;;24.05;9.70;;;;;;;-3.29;62.42;98843.94;5001666;28;20034;-79
2022/01/28 10:29:31;;;;;;;22.13;10.23;;;;;;;-3.36;61.78;98837.81;5020747;28;20058;-78
2022/01/28 10:32:03;;;;;;;24.45;9.63;;;;;;;-3.55;61.67;98826.19;5005187;28;20042;-78
2022/01/28 10:34:29;;;;;;;21.10;9.70;;;;;;;-3.44;61.82;98834.19;4972808;28;20096;-78
2022/01/28 10:37:21;;;;;;;23.55;10.00;;;;;;;-3.30;62.05;98836.28;5000934;28;20539;-80
2022/01/28 10:40:10;;;;;;;24.13;10.27;;;;;;;-3.31;62.71;98829.47;4985188;28;20093;-82
2022/01/28 10:42:51;;;;;;;21.77;9.45;;;;;;;-3.26;61.33;98825.38;5016087;28;20037;-78
2022/01/28 10:45:24;;;;;;;21.63;8.52;;;;;;;-3.23;61.69;98830.56;4998925;28;20400;-81
2022/01/28 10:47:54;;;;;;;22.83;9.70;;;;;;;-3.20;62.03;98820.50;5016298;28;20037;-79
2022/01/28 10:50:28;;;;;;;26.30;10.38;;;;;;;-3.09;61.86;98824.22;4999830;28;20041;-77
2022/01/28 10:53:07;;;;;;;25.25;10.32;;;;;;;-3.16;61.33;98816.34;5017290;28;20038;-79
2022/01/28 10:55:40;;;;;;;24.92;9.63;;;;;;;-3.13;61.57;98812.22;4981939;28;20095;-78
2022/01/28 10:58:06;;;;;;;27.45;10.20;;;;;;;-3.07;62.08;98807.31;4995678;28;20064;-78
2022/01/28 11:00:37;;;;;;;26.67;10.07;;;;;;;-3.15;61.61;98821.47;4997377;28;20045;-76
2022/01/28 11:03:06;;;;;;;22.70;10.07;;;;;;;-3.21;61.84;98803.50;4965537;28;20037;-79
2022/01/28 11:05:44;;;;;;;26.35;11.98;;;;;;;-3.20;62.30;98802.69;4980932;28;20053;-80
2022/01/28 11:08:14;;;;;;;24.70;10.55;;;;;;;-3.07;62.12;98801.34;4998629;28;20146;-77
2022/01/28 11:10:45;;;;;;;28.10;10.48;;;;;;;-3.25;61.98;98786.41;4982744;28;20080;-76
2022/01/28 11:13:12;;;;;;;23.02;9.13;;;;;;;-3.06;62.49;98810.69;4980557;28;20191;-77
2022/01/28 11:15:39;;;;;;;31.92;10.82;;;;;;;-3.25;62.62;98771.13;4997571;28;20046;-76
2022/01/28 11:18:08;;;;;;;24.17;10.35;;;;;;;-3.20;61.54;98789.94;4964063;28;20099;-78
2022/01/28 11:20:47;;;;;;;26.70;11.13;;;;;;;-3.43;61.92;98784.16;4995855;28;20069;-77
2022/01/28 11:23:21;;;;;;;26.27;11.38;;;;;;;-3.18;62.13;98811.19;4981301;28;20041;-78
2022/01/28 11:26:14;;;;;;;30.65;12.02;;;;;;;-3.05;62.98;98803.13;4979614;28;20065;-79
2022/01/28 11:28:44;;;;;;;25.65;10.57;;;;;;;-3.05;61.64;98803.13;4995619;28;20053;-81
2022/01/28 11:31:12;;;;;;;26.05;10.45;;;;;;;-3.17;62.13;98797.66;5001569;28;20060;-79
2022/01/28 11:33:47;;;;;;;29.25;11.85;;;;;;;-3.11;61.56;98808.03;5006073;28;20088;-81
2022/01/28 11:36:14;;;;;;;28.15;12.15;;;;;;;-4.01;61.30;98680.66;5025217;28;20038;-81
2022/01/28 11:38:44;;;;;;;30.33;12.70;;;;;;;-4.58;61.92;98615.31;5017539;28;20088;-79
2022/01/28 11:41:13;;;;;;;31.75;12.35;;;;;;;-3.51;62.46;98799.16;4997177;28;20056;-78
2022/01/28 11:43:50;;;;;;;32.90;13.18;;;;;;;-3.42;62.21;98817.25;5013772;28;20065;-81
2022/01/28 11:46:19;;;;;;;32.50;13.70;;;;;;;-3.29;62.97;98790.50;4980295;28;20042;-78
2022/01/28 11:49:17;;;;;;;32.28;12.85;;;;;;;-3.12;63.10;98806.28;4996569;28;20071;-80
2022/01/28 11:51:44;;;;;;;32.92;12.57;;;;;;;-3.24;62.59;98780.50;4979101;28;20402;-79
2022/01/28 11:54:19;;;;;;;25.58;11.60;;;;;;;-3.28;62.38;98788.84;4980101;28;20452;-81
2022/01/28 11:56:58;;;;;;;25.90;11.15;;;;;;;-3.29;61.51;98810.00;4969097;28;20041;-80
2022/01/28 11:59:46;;;;;;;28.55;12.57;;;;;;;-3.65;62.17;98752.94;4976095;28;20156;-79
2022/01/28 12:02:15;;;;;;;27.85;11.38;;;;;;;-4.03;62.41;98709.38;4985393;28;20040;-79
2022/01/28 12:04:46;;;;;;;32.13;11.98;;;;;;;-4.40;62.83;98654.00;4983332;28;20524;-79
2022/01/28 12:07:17;;;;;;;27.45;11.90;;;;;;;-4.17;62.45;98701.31;4995530;28;20100;-78
2022/01/28 12:09:54;;;;;;;31.42;11.88;;;;;;;-3.48;61.81;98822.16;4980826;28;20050;-81
2022/01/28 12:12:41;;;;;;;30.48;12.40;;;;;;;-4.33;62.90;98708.44;4979270;28;20430;-76
2022/01/28 12:15:16;;;;;;;27.98;12.32;;;;;;;-3.50;62.93;98827.19;4979241;28;20417;-76
2022/01/28 12:17:49;;;;;;;30.92;12.27;;;;;;;-3.71;62.44;98791.78;4980202;28;20109;-77
2022/01/28 12:20:15;;;;;;;30.98;11.40;;;;;;;-3.53;63.06;98818.59;4995742;28;20050;-78
2022/01/28 12:23:06;;;;;;;29.38;11.70;;;;;;;-3.45;62.89;98824.81;4979130;28;20041;-81
2022/01/28 12:25:41;;;;;;;29.52;11.15;;;;;;;-3.54;62.26;98821.97;4994237;28;20041;-80
2022/01/28 12:28:11;;;;;;;43.38;15.85;;;;;;;-3.66;62.78;98828.41;4977622;28;20515;-77
2022/01/28 12:30:39;;;;;;;35.20;14.77;;;;;;;-3.78;62.75;98817.81;4978400;28;20058;-80
2022/01/28 12:33:22;;;;;;;38.65;14.23;;;;;;;-4.96;62.90;98628.44;4979402;28;20060;-78
2022/01/28 12:36:06;;;;;;;40.85;15.00;;;;;;;-5.11;63.36;98617.78;4980474;28;20037;-78
2022/01/28 12:38:46;;;;;;;43.75;15.75;;;;;;;-4.46;62.46;98739.31;4996625;28;20045;-78
2022/01/28 12:41:15;;;;;;;36.05;14.90;;;;;;;-4.25;63.67;98775.59;4995302;28;20038;-78
2022/01/28 12:43:41;;;;;;;34.50;14.10;;;;;;;-4.86;62.92;98686.34;4979424;28;20096;-79
2022/01/28 12:46:13;;;;;;;32.63;13.40;;;;;;;-5.15;63.80;98657.41;4962473;28;20042;-77
2022/01/28 12:48:50;;;;;;;32.40;12.90;;;;;;;-4.36;64.51;98754.06;4995769;28;20046;-81
2022/01/28 12:51:17;;;;;;;32.03;13.00;;;;;;;-3.69;64.14;98828.28;4978271;28;20042;-78
2022/01/28 12:53:45;;;;;;;33.90;13.38;;;;;;;-3.88;64.17;98791.22;4995855;28;20038;-79
2022/01/28 12:56:38;;;;;;;28.45;11.80;;;;;;;-3.90;63.87;98797.09;4963611;28;20062;-77
2022/01/28 12:59:22;;;;;;;31.05;12.27;;;;;;;-3.68;63.87;98819.84;4962317;28;20044;-80
2022/01/28 13:02:16;;;;;;;32.50;11.98;;;;;;;-3.80;64.06;98782.19;4995677;28;20334;-77
2022/01/28 13:10:27;;;;;;;27.90;11.02;;;;;;;-3.92;63.34;98791.09;5004687;28;20042;-77
2022/01/28 13:13:10;;;;;;;31.63;12.13;;;;;;;-3.74;64.24;98814.56;4987262;28;20042;-79
2022/01/28 13:15:38;;;;;;;34.10;12.45;;;;;;;-3.86;64.53;98760.78;5004222;28;20532;-80